createdAt,value
2023-05-15T00:00:17.807Z,94514.00
2023-05-15T00:01:17.874Z,94510.00
2023-05-15T00:02:17.957Z,94508.00
2023-05-15T00:03:18.245Z,94508.00
2023-05-15T00:04:18.030Z,94504.00
2023-05-15T00:05:18.192Z,94506.00
2023-05-15T00:06:18.157Z,94504.00
2023-05-15T00:07:18.174Z,94502.00
2023-05-15T00:08:18.241Z,94501.00
2023-05-15T00:09:18.279Z,94501.00
2023-05-15T00:10:18.388Z,94501.00
2023-05-15T00:11:18.379Z,94502.00
2023-05-15T00:12:18.449Z,94499.00
2023-05-15T00:13:18.505Z,94499.00
2023-05-15T00:14:18.547Z,94493.00
2023-05-15T00:15:18.648Z,94491.00
2023-05-15T00:16:18.734Z,94493.00
2023-05-15T00:17:18.721Z,94495.00
2023-05-15T00:18:18.768Z,94495.00
2023-05-15T00:19:18.936Z,94495.00
2023-05-15T00:20:18.869Z,94495.00
2023-05-15T00:21:18.924Z,94495.00
2023-05-15T00:22:18.961Z,94497.00
2023-05-15T00:23:19.017Z,94495.00
2023-05-15T00:24:19.075Z,94493.00
2023-05-15T00:25:19.126Z,94493.00
2023-05-15T00:26:19.154Z,94493.00
2023-05-15T00:27:19.226Z,94493.00
2023-05-15T00:28:19.231Z,94489.00
2023-05-15T00:29:19.316Z,94491.00
2023-05-15T00:30:19.384Z,94489.00
2023-05-15T00:31:19.427Z,94491.00
2023-05-15T00:32:19.464Z,94493.00
2023-05-15T00:33:19.523Z,94495.00
2023-05-15T00:34:19.543Z,94497.00
2023-05-15T00:35:19.713Z,94495.00
2023-05-15T00:36:19.692Z,94491.00
2023-05-15T00:37:19.750Z,94487.00
2023-05-15T00:38:19.828Z,94487.00
2023-05-15T00:39:19.912Z,94489.00
2023-05-15T00:40:20.268Z,94491.00
2023-05-15T00:41:19.997Z,94491.00
2023-05-15T00:42:20.044Z,94493.00
2023-05-15T00:43:20.132Z,94491.00
2023-05-15T00:44:20.186Z,94491.00
2023-05-15T00:45:20.215Z,94489.00
2023-05-15T00:46:20.306Z,94483.00
2023-05-15T00:47:20.422Z,94483.00
2023-05-15T00:48:20.382Z,94489.00
2023-05-15T00:49:20.422Z,94489.00
2023-05-15T00:50:20.479Z,94497.00
2023-05-15T00:51:20.543Z,94489.00
2023-05-15T00:52:20.574Z,94491.00
2023-05-15T00:53:20.620Z,94487.00
2023-05-15T00:54:20.783Z,94477.00
2023-05-15T00:55:20.690Z,94481.00
2023-05-15T00:56:21.256Z,94481.00
2023-05-15T00:57:20.814Z,94485.00
2023-05-15T00:58:20.870Z,94487.00
2023-05-15T00:59:20.909Z,94485.00
2023-05-15T01:00:20.960Z,94483.00
2023-05-15T01:01:21.019Z,94481.00
2023-05-15T01:02:21.133Z,94481.00
2023-05-15T01:03:21.112Z,94483.00
2023-05-15T01:04:21.145Z,94485.00
2023-05-15T01:05:21.210Z,94483.00
2023-05-15T01:06:21.775Z,94481.00
2023-05-15T01:07:21.326Z,94483.00
2023-05-15T01:08:21.383Z,94489.00
2023-05-15T01:09:21.408Z,94493.00
2023-05-15T01:10:21.473Z,94489.00
2023-05-15T01:11:21.541Z,94489.00
2023-05-15T01:12:21.591Z,94487.00
2023-05-15T01:13:21.607Z,94491.00
2023-05-15T01:14:21.651Z,94493.00
2023-05-15T01:15:21.769Z,94493.00
2023-05-15T01:16:21.789Z,94491.00
2023-05-15T01:17:21.812Z,94489.00
2023-05-15T01:18:21.970Z,94491.00
2023-05-15T01:19:22.024Z,94491.00
2023-05-15T01:20:21.965Z,94489.00
2023-05-15T01:21:22.257Z,94487.00
2023-05-15T01:22:22.095Z,94485.00
2023-05-15T01:23:22.142Z,94487.00
2023-05-15T01:24:22.200Z,94489.00
2023-05-15T01:25:22.374Z,94487.00
2023-05-15T01:26:22.752Z,94491.00
2023-05-15T01:27:22.348Z,94489.00
2023-05-15T01:28:22.430Z,94489.00
2023-05-15T01:29:22.505Z,94489.00
2023-05-15T01:30:22.557Z,94489.00
2023-05-15T01:31:22.749Z,94487.00
2023-05-15T01:32:22.889Z,94487.00
2023-05-15T01:33:22.709Z,94487.00
2023-05-15T01:34:22.747Z,94489.00
2023-05-15T01:35:23.151Z,94489.00
2023-05-15T01:36:22.871Z,94489.00
2023-05-15T01:37:22.917Z,94485.00
2023-05-15T01:38:23.011Z,94483.00
2023-05-15T01:39:23.066Z,94489.00
2023-05-15T01:40:23.132Z,94493.00
2023-05-15T01:41:23.138Z,94495.00
2023-05-15T01:42:23.196Z,94495.00
2023-05-15T01:43:23.252Z,94485.00
2023-05-15T01:44:23.291Z,94485.00
2023-05-15T01:45:23.458Z,94481.00
2023-05-15T01:46:23.856Z,94477.00
2023-05-15T01:47:23.512Z,94483.00
2023-05-15T01:48:23.578Z,94489.00
2023-05-15T01:49:23.612Z,94495.00
2023-05-15T01:50:24.266Z,94497.00
2023-05-15T01:51:23.708Z,94497.00
2023-05-15T01:52:23.764Z,94497.00
2023-05-15T01:53:23.841Z,94497.00
2023-05-15T01:54:23.922Z,94497.00
2023-05-15T01:55:24.227Z,94497.00
2023-05-15T01:56:24.037Z,94497.00
2023-05-15T01:57:24.076Z,94497.00
2023-05-15T01:58:24.123Z,94501.00
2023-05-15T01:59:24.154Z,94499.00
2023-05-15T02:00:24.247Z,94501.00
2023-05-15T02:01:24.336Z,94501.00
2023-05-15T02:02:24.478Z,94502.00
2023-05-15T02:03:24.528Z,94501.00
2023-05-15T02:04:24.459Z,94502.00
2023-05-15T02:05:24.858Z,94499.00
2023-05-15T02:06:24.601Z,94502.00
2023-05-15T02:07:24.653Z,94502.00
2023-05-15T02:08:24.685Z,94497.00
2023-05-15T02:09:24.775Z,94504.00
2023-05-15T02:10:24.813Z,94502.00
2023-05-15T02:11:24.889Z,94501.00
2023-05-15T02:12:24.940Z,94497.00
2023-05-15T02:13:24.982Z,94495.00
2023-05-15T02:14:25.039Z,94495.00
2023-05-15T02:15:25.224Z,94499.00
2023-05-15T02:16:25.257Z,94499.00
2023-05-15T02:17:25.252Z,94497.00
2023-05-15T02:18:25.273Z,94499.00
2023-05-15T02:19:25.322Z,94501.00
2023-05-15T02:20:25.399Z,94501.00
2023-05-15T02:21:25.505Z,94501.00
2023-05-15T02:22:25.559Z,94497.00
2023-05-15T02:23:25.583Z,94495.00
2023-05-15T02:24:25.621Z,94491.00
2023-05-15T02:25:25.903Z,94489.00
2023-05-15T02:26:25.778Z,94487.00
2023-05-15T02:27:25.798Z,94493.00
2023-05-15T02:28:25.852Z,94495.00
2023-05-15T02:29:25.882Z,94497.00
2023-05-15T02:30:25.984Z,94495.00
2023-05-15T02:31:26.065Z,94493.00
2023-05-15T02:32:26.113Z,94489.00
2023-05-15T02:33:26.134Z,94489.00
2023-05-15T02:34:26.214Z,94485.00
2023-05-15T02:35:26.465Z,94487.00
2023-05-15T02:36:26.280Z,94487.00
2023-05-15T02:37:26.399Z,94489.00
2023-05-15T02:38:26.433Z,94489.00
2023-05-15T02:39:26.489Z,94489.00
2023-05-15T02:40:26.585Z,94491.00
2023-05-15T02:41:26.618Z,94487.00
2023-05-15T02:42:26.685Z,94483.00
2023-05-15T02:43:26.709Z,94485.00
2023-05-15T02:44:26.798Z,94485.00
2023-05-15T02:45:27.045Z,94485.00
2023-05-15T02:46:28.260Z,94483.00
2023-05-15T02:47:26.952Z,94483.00
2023-05-15T02:48:27.019Z,94485.00
2023-05-15T02:49:27.076Z,94487.00
2023-05-15T02:50:27.130Z,94485.00
2023-05-15T02:51:27.219Z,94483.00
2023-05-15T02:52:27.249Z,94483.00
2023-05-15T02:53:27.283Z,94483.00
2023-05-15T02:54:27.383Z,94485.00
2023-05-15T02:55:27.629Z,94483.00
2023-05-15T02:56:27.804Z,94485.00
2023-05-15T02:57:27.583Z,94487.00
2023-05-15T02:58:27.602Z,94489.00
2023-05-15T02:59:27.692Z,94491.00
2023-05-15T03:00:27.723Z,94491.00
2023-05-15T03:01:27.817Z,94489.00
2023-05-15T03:02:27.856Z,94491.00
2023-05-15T03:03:27.914Z,94491.00
2023-05-15T03:04:27.986Z,94499.00
2023-05-15T03:05:28.184Z,94499.00
2023-05-15T03:06:28.061Z,94501.00
2023-05-15T03:07:28.135Z,94497.00
2023-05-15T03:08:28.216Z,94497.00
2023-05-15T03:09:28.255Z,94489.00
2023-05-15T03:10:28.328Z,94491.00
2023-05-15T03:11:28.420Z,94489.00
2023-05-15T03:12:28.461Z,94491.00
2023-05-15T03:13:28.533Z,94493.00
2023-05-15T03:14:28.546Z,94493.00
2023-05-15T03:15:28.623Z,94493.00
2023-05-15T03:16:28.685Z,94501.00
2023-05-15T03:17:28.714Z,94499.00
2023-05-15T03:18:28.776Z,94499.00
2023-05-15T03:19:28.823Z,94501.00
2023-05-15T03:20:28.886Z,94501.00
2023-05-15T03:21:28.915Z,94499.00
2023-05-15T03:22:28.992Z,94499.00
2023-05-15T03:23:29.000Z,94497.00
2023-05-15T03:24:29.042Z,94497.00
2023-05-15T03:25:29.049Z,94501.00
2023-05-15T03:26:29.128Z,94504.00
2023-05-15T03:27:29.139Z,94504.00
2023-05-15T03:28:29.188Z,94501.00
2023-05-15T03:29:29.230Z,94501.00
2023-05-15T03:30:29.298Z,94501.00
2023-05-15T03:31:29.407Z,94501.00
2023-05-15T03:32:29.386Z,94499.00
2023-05-15T03:33:29.428Z,94497.00
2023-05-15T03:34:29.501Z,94499.00
2023-05-15T03:35:29.548Z,94504.00
2023-05-15T03:36:29.615Z,94508.00
2023-05-15T03:37:29.664Z,94510.00
2023-05-15T03:38:29.731Z,94506.00
2023-05-15T03:39:29.755Z,94502.00
2023-05-15T03:40:29.847Z,94501.00
2023-05-15T03:41:30.292Z,94499.00
2023-05-15T03:42:29.981Z,94497.00
2023-05-15T03:43:30.037Z,94497.00
2023-05-15T03:44:30.070Z,94497.00
2023-05-15T03:45:30.167Z,94504.00
2023-05-15T03:46:30.234Z,94508.00
2023-05-15T03:47:30.315Z,94512.00
2023-05-15T03:48:30.283Z,94512.00
2023-05-15T03:49:30.311Z,94510.00
2023-05-15T03:50:30.381Z,94510.00
2023-05-15T03:51:30.408Z,94508.00
2023-05-15T03:52:30.461Z,94506.00
2023-05-15T03:53:30.528Z,94506.00
2023-05-15T03:54:30.578Z,94508.00
2023-05-15T03:55:30.698Z,94510.00
2023-05-15T03:56:30.696Z,94510.00
2023-05-15T03:57:30.760Z,94512.00
2023-05-15T03:58:30.810Z,94510.00
2023-05-15T03:59:30.904Z,94514.00
2023-05-15T04:00:30.970Z,94516.00
2023-05-15T04:01:31.044Z,94518.00
2023-05-15T04:02:31.077Z,94518.00
2023-05-15T04:03:31.146Z,94522.00
2023-05-15T04:04:31.170Z,94522.00
2023-05-15T04:05:31.275Z,94522.00
2023-05-15T04:06:31.252Z,94522.00
2023-05-15T04:07:31.330Z,94518.00
2023-05-15T04:08:31.382Z,94522.00
2023-05-15T04:09:31.387Z,94522.00
2023-05-15T04:10:31.426Z,94522.00
2023-05-15T04:11:31.440Z,94524.00
2023-05-15T04:12:31.513Z,94522.00
2023-05-15T04:13:31.574Z,94522.00
2023-05-15T04:14:31.613Z,94524.00
2023-05-15T04:15:31.663Z,94522.00
2023-05-15T04:16:31.833Z,94524.00
2023-05-15T04:17:31.811Z,94528.00
2023-05-15T04:18:31.855Z,94526.00
2023-05-15T04:19:31.901Z,94530.00
2023-05-15T04:20:31.936Z,94532.00
2023-05-15T04:21:32.005Z,94534.00
2023-05-15T04:22:32.094Z,94532.00
2023-05-15T04:23:32.065Z,94526.00
2023-05-15T04:24:32.140Z,94524.00
2023-05-15T04:25:32.187Z,94524.00
2023-05-15T04:26:32.344Z,94532.00
2023-05-15T04:27:32.313Z,94528.00
2023-05-15T04:28:32.345Z,94532.00
2023-05-15T04:29:32.412Z,94532.00
2023-05-15T04:30:32.464Z,94534.00
2023-05-15T04:31:32.675Z,94534.00
2023-05-15T04:32:32.586Z,94534.00
2023-05-15T04:33:32.650Z,94534.00
2023-05-15T04:34:32.700Z,94536.00
2023-05-15T04:35:32.780Z,94534.00
2023-05-15T04:36:32.852Z,94532.00
2023-05-15T04:37:32.874Z,94532.00
2023-05-15T04:38:32.928Z,94532.00
2023-05-15T04:39:32.980Z,94534.00
2023-05-15T04:40:33.045Z,94536.00
2023-05-15T04:41:33.072Z,94536.00
2023-05-15T04:42:33.125Z,94534.00
2023-05-15T04:43:33.199Z,94538.00
2023-05-15T04:44:33.237Z,94538.00
2023-05-15T04:45:33.310Z,94542.00
2023-05-15T04:46:33.869Z,94536.00
2023-05-15T04:47:33.445Z,94536.00
2023-05-15T04:48:33.499Z,94536.00
2023-05-15T04:49:33.553Z,94534.00
2023-05-15T04:50:33.573Z,94534.00
2023-05-15T04:51:33.659Z,94540.00
2023-05-15T04:52:33.715Z,94548.00
2023-05-15T04:53:33.782Z,94540.00
2023-05-15T04:54:33.813Z,94546.00
2023-05-15T04:55:33.872Z,94544.00
2023-05-15T04:56:34.333Z,94548.00
2023-05-15T04:57:33.970Z,94548.00
2023-05-15T04:58:34.061Z,94544.00
2023-05-15T04:59:34.106Z,94546.00
2023-05-15T05:00:34.167Z,94546.00
2023-05-15T05:01:34.288Z,94548.00
2023-05-15T05:02:34.361Z,94550.00
2023-05-15T05:03:34.364Z,94552.00
2023-05-15T05:04:34.408Z,94548.00
2023-05-15T05:05:34.411Z,94554.00
2023-05-15T05:06:34.449Z,94557.00
2023-05-15T05:07:34.485Z,94557.00
2023-05-15T05:08:34.501Z,94561.00
2023-05-15T05:09:34.524Z,94559.00
2023-05-15T05:10:34.529Z,94567.00
2023-05-15T05:11:34.557Z,94567.00
2023-05-15T05:12:34.559Z,94567.00
2023-05-15T05:13:34.598Z,94573.00
2023-05-15T05:14:34.580Z,94575.00
2023-05-15T05:15:34.574Z,94575.00
2023-05-15T05:16:35.035Z,94573.00
2023-05-15T05:17:34.617Z,94579.00
2023-05-15T05:18:34.650Z,94583.00
2023-05-15T05:19:34.596Z,94577.00
2023-05-15T05:20:34.620Z,94579.00
2023-05-15T05:21:34.831Z,94583.00
2023-05-15T05:22:34.592Z,94585.00
2023-05-15T05:23:34.605Z,94583.00
2023-05-15T05:24:34.597Z,94581.00
2023-05-15T05:25:34.626Z,94583.00
2023-05-15T05:26:34.595Z,94583.00
2023-05-15T05:27:34.556Z,94579.00
2023-05-15T05:28:34.569Z,94583.00
2023-05-15T05:29:34.590Z,94587.00
2023-05-15T05:30:34.600Z,94585.00
2023-05-15T05:31:34.614Z,94587.00
2023-05-15T05:32:34.634Z,94589.00
2023-05-15T05:33:34.582Z,94585.00
2023-05-15T05:34:34.561Z,94587.00
2023-05-15T05:35:34.555Z,94585.00
2023-05-15T05:36:34.576Z,94583.00
2023-05-15T05:37:34.593Z,94581.00
2023-05-15T05:38:34.584Z,94583.00
2023-05-15T05:39:34.628Z,94587.00
2023-05-15T05:40:34.627Z,94589.00
2023-05-15T05:41:34.871Z,94593.00
2023-05-15T05:42:34.619Z,94593.00
2023-05-15T05:43:34.622Z,94597.00
2023-05-15T05:44:34.597Z,94601.00
2023-05-15T05:45:34.655Z,94593.00
2023-05-15T05:46:34.637Z,94591.00
2023-05-15T05:47:34.859Z,94603.00
2023-05-15T05:48:34.612Z,94604.00
2023-05-15T05:49:34.629Z,94599.00
2023-05-15T05:50:34.627Z,94597.00
2023-05-15T05:51:34.756Z,94601.00
2023-05-15T05:52:34.884Z,94599.00
2023-05-15T05:53:34.668Z,94601.00
2023-05-15T05:54:34.685Z,94601.00
2023-05-15T05:55:34.668Z,94599.00
2023-05-15T05:56:34.686Z,94601.00
2023-05-15T05:57:34.831Z,94597.00
2023-05-15T05:58:34.656Z,94595.00
2023-05-15T05:59:34.697Z,94601.00
2023-05-15T06:00:34.681Z,94599.00
2023-05-15T06:01:34.683Z,94599.00
2023-05-15T06:02:34.782Z,94599.00
2023-05-15T06:03:34.892Z,94599.00
2023-05-15T06:04:34.815Z,94599.00
2023-05-15T06:05:34.624Z,94599.00
2023-05-15T06:06:34.733Z,94601.00
2023-05-15T06:07:34.687Z,94599.00
2023-05-15T06:08:34.601Z,94599.00
2023-05-15T06:09:34.629Z,94595.00
2023-05-15T06:10:34.646Z,94595.00
2023-05-15T06:11:34.677Z,94595.00
2023-05-15T06:12:34.626Z,94595.00
2023-05-15T06:13:34.654Z,94599.00
2023-05-15T06:14:34.647Z,94599.00
2023-05-15T06:15:34.643Z,94599.00
2023-05-15T06:16:34.682Z,94599.00
2023-05-15T06:17:34.686Z,94599.00
2023-05-15T06:18:34.668Z,94597.00
2023-05-15T06:19:34.623Z,94595.00
2023-05-15T06:20:34.604Z,94597.00
2023-05-15T06:21:34.644Z,94593.00
2023-05-15T06:22:34.697Z,94595.00
2023-05-15T06:23:34.662Z,94595.00
2023-05-15T06:24:34.714Z,94603.00
2023-05-15T06:25:34.650Z,94604.00
2023-05-15T06:26:34.652Z,94604.00
2023-05-15T06:27:34.633Z,94604.00
2023-05-15T06:28:34.662Z,94606.00
2023-05-15T06:29:34.626Z,94606.00
2023-05-15T06:30:34.715Z,94604.00
2023-05-15T06:31:34.752Z,94604.00
2023-05-15T06:32:34.813Z,94601.00
2023-05-15T06:33:34.682Z,94603.00
2023-05-15T06:34:34.670Z,94604.00
2023-05-15T06:35:34.656Z,94608.00
2023-05-15T06:36:34.647Z,94608.00
2023-05-15T06:37:34.665Z,94608.00
2023-05-15T06:38:34.673Z,94608.00
2023-05-15T06:39:34.696Z,94608.00
2023-05-15T06:40:34.718Z,94610.00
2023-05-15T06:41:34.727Z,94612.00
2023-05-15T06:42:34.739Z,94612.00
2023-05-15T06:43:36.357Z,94614.00
2023-05-15T06:44:34.713Z,94616.00
2023-05-15T06:45:34.754Z,94616.00
2023-05-15T06:46:34.823Z,94618.00
2023-05-15T06:47:34.816Z,94616.00
2023-05-15T06:48:34.777Z,94616.00
2023-05-15T06:49:34.792Z,94618.00
2023-05-15T06:50:34.780Z,94612.00
2023-05-15T06:51:34.802Z,94612.00
2023-05-15T06:52:34.768Z,94614.00
2023-05-15T06:53:34.807Z,94608.00
2023-05-15T06:54:34.857Z,94608.00
2023-05-15T06:55:34.765Z,94612.00
2023-05-15T06:56:34.769Z,94610.00
2023-05-15T06:57:34.746Z,94604.00
2023-05-15T06:58:34.768Z,94603.00
2023-05-15T06:59:34.790Z,94604.00
2023-05-15T07:00:34.760Z,94601.00
2023-05-15T07:01:34.806Z,94604.00
2023-05-15T07:02:34.801Z,94603.00
2023-05-15T07:03:34.771Z,94606.00
2023-05-15T07:04:34.838Z,94608.00
2023-05-15T07:05:34.814Z,94601.00
2023-05-15T07:06:35.871Z,94608.00
2023-05-15T07:07:35.376Z,94608.00
2023-05-15T07:08:35.005Z,94606.00
2023-05-15T07:09:35.052Z,94608.00
2023-05-15T07:10:35.139Z,94612.00
2023-05-15T07:11:35.172Z,94610.00
2023-05-15T07:12:35.214Z,94612.00
2023-05-15T07:13:35.253Z,94614.00
2023-05-15T07:14:35.292Z,94618.00
2023-05-15T07:15:35.364Z,94624.00
2023-05-15T07:16:35.379Z,94620.00
2023-05-15T07:17:35.949Z,94624.00
2023-05-15T07:18:35.498Z,94620.00
2023-05-15T07:19:35.617Z,94620.00
2023-05-15T07:20:35.673Z,94620.00
2023-05-15T07:21:35.619Z,94620.00
2023-05-15T07:22:44.654Z,94620.00
2023-05-15T07:23:36.621Z,94624.00
2023-05-15T07:24:36.329Z,94626.00
2023-05-15T07:25:35.626Z,94626.00
2023-05-15T07:26:43.525Z,94626.00
2023-05-15T07:27:36.602Z,94626.00
2023-05-15T07:28:35.585Z,94626.00
2023-05-15T07:29:35.575Z,94624.00
2023-05-15T07:30:35.548Z,94626.00
2023-05-15T07:31:35.618Z,94622.00
2023-05-15T07:32:35.546Z,94622.00
2023-05-15T07:33:35.574Z,94626.00
2023-05-15T07:34:35.535Z,94638.00
2023-05-15T07:35:35.512Z,94638.00
2023-05-15T07:36:35.486Z,94640.00
2023-05-15T07:37:35.489Z,94644.00
2023-05-15T07:38:35.538Z,94642.00
2023-05-15T07:39:35.516Z,94642.00
2023-05-15T07:40:35.484Z,94636.00
2023-05-15T07:41:35.451Z,94634.00
2023-05-15T07:42:35.536Z,94618.00
2023-05-15T07:43:35.430Z,94618.00
2023-05-15T07:44:35.439Z,94614.00
2023-05-15T07:45:35.580Z,94612.00
2023-05-15T07:46:35.601Z,94614.00
2023-05-15T07:47:36.424Z,94612.00
2023-05-15T07:48:35.397Z,94612.00
2023-05-15T07:49:35.446Z,94606.00
2023-05-15T07:50:35.453Z,94608.00
2023-05-15T07:51:35.379Z,94604.00
2023-05-15T07:52:35.394Z,94601.00
2023-05-15T07:53:35.399Z,94599.00
2023-05-15T07:54:35.390Z,94601.00
2023-05-15T07:55:35.384Z,94601.00
2023-05-15T07:56:35.373Z,94601.00
2023-05-15T07:57:35.364Z,94606.00
2023-05-15T07:58:35.338Z,94604.00
2023-05-15T07:59:35.349Z,94606.00
2023-05-15T08:00:35.321Z,94606.00
2023-05-15T08:01:35.339Z,94604.00
2023-05-15T08:02:35.438Z,94603.00
2023-05-15T08:03:35.417Z,94601.00
2023-05-15T08:04:35.392Z,94601.00
2023-05-15T08:05:35.290Z,94601.00
2023-05-15T08:06:35.316Z,94601.00
2023-05-15T08:07:35.430Z,94603.00
2023-05-15T08:08:35.276Z,94601.00
2023-05-15T08:09:35.279Z,94603.00
2023-05-15T08:10:35.317Z,94603.00
2023-05-15T08:11:35.363Z,94599.00
2023-05-15T08:12:35.867Z,94604.00
2023-05-15T08:13:35.471Z,94603.00
2023-05-15T08:14:35.714Z,94601.00
2023-05-15T08:15:35.644Z,94601.00
2023-05-15T08:16:35.620Z,94603.00
2023-05-15T08:17:35.957Z,94599.00
2023-05-15T08:18:35.778Z,94599.00
2023-05-15T08:19:35.825Z,94599.00
2023-05-15T08:20:35.821Z,94597.00
2023-05-15T08:21:35.878Z,94593.00
2023-05-15T08:22:35.965Z,94589.00
2023-05-15T08:23:36.013Z,94593.00
2023-05-15T08:24:36.075Z,94593.00
2023-05-15T08:25:36.101Z,94589.00
2023-05-15T08:26:36.191Z,94585.00
2023-05-15T08:27:36.455Z,94585.00
2023-05-15T08:28:36.266Z,94583.00
2023-05-15T08:29:38.584Z,94581.00
2023-05-15T08:30:36.420Z,94583.00
2023-05-15T08:31:36.401Z,94579.00
2023-05-15T08:32:36.434Z,94575.00
2023-05-15T08:33:36.351Z,94571.00
2023-05-15T08:34:36.300Z,94575.00
2023-05-15T08:35:36.312Z,94573.00
2023-05-15T08:36:37.699Z,94573.00
2023-05-15T08:37:36.431Z,94569.00
2023-05-15T08:38:36.285Z,94575.00
2023-05-15T08:39:36.283Z,94575.00
2023-05-15T08:40:39.502Z,94583.00
2023-05-15T08:41:40.727Z,94575.00
2023-05-15T08:42:36.293Z,94581.00
2023-05-15T08:43:36.228Z,94573.00
2023-05-15T08:44:36.225Z,94573.00
2023-05-15T08:45:36.243Z,94573.00
2023-05-15T08:46:36.284Z,94575.00
2023-05-15T08:47:36.259Z,94575.00
2023-05-15T08:48:36.352Z,94567.00
2023-05-15T08:49:36.209Z,94579.00
2023-05-15T08:50:36.205Z,94579.00
2023-05-15T08:51:36.944Z,94579.00
2023-05-15T08:52:36.217Z,94583.00
2023-05-15T08:53:36.196Z,94585.00
2023-05-15T08:54:36.261Z,94581.00
2023-05-15T08:55:36.281Z,94585.00
2023-05-15T08:56:36.321Z,94587.00
2023-05-15T08:57:36.383Z,94591.00
2023-05-15T08:58:36.406Z,94585.00
2023-05-15T08:59:36.446Z,94581.00
2023-05-15T09:00:36.494Z,94587.00
2023-05-15T09:01:36.536Z,94583.00
2023-05-15T09:02:36.976Z,94581.00
2023-05-15T09:03:36.731Z,94579.00
2023-05-15T09:04:36.650Z,94581.00
2023-05-15T09:05:38.165Z,94579.00
2023-05-15T09:06:36.705Z,94577.00
2023-05-15T09:07:36.926Z,94579.00
2023-05-15T09:08:36.703Z,94579.00
2023-05-15T09:09:36.689Z,94579.00
2023-05-15T09:10:36.697Z,94579.00
2023-05-15T09:11:36.641Z,94577.00
2023-05-15T09:12:36.690Z,94577.00
2023-05-15T09:13:36.625Z,94577.00
2023-05-15T09:14:36.634Z,94577.00
2023-05-15T09:15:36.626Z,94577.00
2023-05-15T09:16:36.656Z,94577.00
2023-05-15T09:17:36.627Z,94575.00
2023-05-15T09:18:36.599Z,94575.00
2023-05-15T09:19:36.578Z,94571.00
2023-05-15T09:20:36.576Z,94569.00
2023-05-15T09:21:36.566Z,94565.00
2023-05-15T09:22:37.459Z,94563.00
2023-05-15T09:23:36.567Z,94565.00
2023-05-15T09:24:36.569Z,94563.00
2023-05-15T09:25:36.532Z,94565.00
2023-05-15T09:26:36.535Z,94569.00
2023-05-15T09:27:36.527Z,94573.00
2023-05-15T09:28:36.523Z,94577.00
2023-05-15T09:29:36.500Z,94579.00
2023-05-15T09:30:36.505Z,94577.00
2023-05-15T09:31:36.530Z,94585.00
2023-05-15T09:32:36.521Z,94589.00
2023-05-15T09:33:36.533Z,94587.00
2023-05-15T09:34:36.493Z,94589.00
2023-05-15T09:35:36.494Z,94595.00
2023-05-15T09:36:36.457Z,94593.00
2023-05-15T09:37:36.452Z,94591.00
2023-05-15T09:38:36.466Z,94597.00
2023-05-15T09:39:36.427Z,94595.00
2023-05-15T09:40:36.498Z,94593.00
2023-05-15T09:41:36.450Z,94595.00
2023-05-15T09:42:36.443Z,94595.00
2023-05-15T09:43:36.423Z,94595.00
2023-05-15T09:44:36.393Z,94597.00
2023-05-15T09:45:36.420Z,94597.00
2023-05-15T09:46:36.537Z,94591.00
2023-05-15T09:47:36.586Z,94593.00
2023-05-15T09:48:36.566Z,94593.00
2023-05-15T09:49:36.386Z,94595.00
2023-05-15T09:50:36.407Z,94597.00
2023-05-15T09:51:36.374Z,94595.00
2023-05-15T09:52:36.374Z,94599.00
2023-05-15T09:53:36.330Z,94599.00
2023-05-15T09:54:36.938Z,94597.00
2023-05-15T09:55:36.370Z,94595.00
2023-05-15T09:56:36.363Z,94597.00
2023-05-15T09:57:36.417Z,94597.00
2023-05-15T09:58:36.436Z,94593.00
2023-05-15T09:59:36.434Z,94595.00
2023-05-15T10:00:48.726Z,94589.00
2023-05-15T10:01:37.534Z,94583.00
2023-05-15T10:02:36.475Z,94583.00
2023-05-15T10:03:36.942Z,94581.00
2023-05-15T10:04:36.476Z,94581.00
2023-05-15T10:05:43.621Z,94585.00
2023-05-15T10:06:37.489Z,94585.00
2023-05-15T10:07:36.444Z,94585.00
2023-05-15T10:08:36.424Z,94583.00
2023-05-15T10:09:36.392Z,94583.00
2023-05-15T10:10:36.387Z,94579.00
2023-05-15T10:11:36.399Z,94577.00
2023-05-15T10:12:36.399Z,94575.00
2023-05-15T10:13:36.362Z,94573.00
2023-05-15T10:14:36.364Z,94573.00
2023-05-15T10:15:36.374Z,94571.00
2023-05-15T10:16:36.491Z,94565.00
2023-05-15T10:17:36.434Z,94565.00
2023-05-15T10:18:36.476Z,94563.00
2023-05-15T10:19:41.514Z,94563.00
2023-05-15T10:20:37.342Z,94557.00
2023-05-15T10:21:36.314Z,94556.00
2023-05-15T10:22:36.335Z,94556.00
2023-05-15T10:23:36.344Z,94552.00
2023-05-15T10:24:36.311Z,94552.00
2023-05-15T10:25:36.334Z,94550.00
2023-05-15T10:26:36.312Z,94550.00
2023-05-15T10:27:36.298Z,94548.00
2023-05-15T10:28:36.487Z,94548.00
2023-05-15T10:29:36.272Z,94546.00
2023-05-15T10:30:36.252Z,94548.00
2023-05-15T10:31:36.373Z,94550.00
2023-05-15T10:32:36.379Z,94546.00
2023-05-15T10:33:36.383Z,94544.00
2023-05-15T10:34:36.407Z,94546.00
2023-05-15T10:35:36.566Z,94542.00
2023-05-15T10:36:36.530Z,94538.00
2023-05-15T10:37:36.576Z,94540.00
2023-05-15T10:38:36.967Z,94542.00
2023-05-15T10:39:36.659Z,94540.00
2023-05-15T10:40:36.727Z,94540.00
2023-05-15T10:41:36.772Z,94542.00
2023-05-15T10:42:36.820Z,94534.00
2023-05-15T10:43:36.984Z,94536.00
2023-05-15T10:44:36.923Z,94542.00
2023-05-15T10:45:37.963Z,94540.00
2023-05-15T10:46:37.202Z,94534.00
2023-05-15T10:47:37.117Z,94534.00
2023-05-15T10:48:37.133Z,94536.00
2023-05-15T10:49:37.170Z,94540.00
2023-05-15T10:50:37.221Z,94542.00
2023-05-15T10:51:37.265Z,94540.00
2023-05-15T10:52:37.308Z,94540.00
2023-05-15T10:53:37.517Z,94542.00
2023-05-15T10:54:37.358Z,94542.00
2023-05-15T10:55:37.392Z,94540.00
2023-05-15T10:56:37.397Z,94544.00
2023-05-15T10:57:37.438Z,94544.00
2023-05-15T10:58:37.490Z,94544.00
2023-05-15T10:59:37.639Z,94544.00
2023-05-15T11:00:37.520Z,94544.00
2023-05-15T11:01:37.628Z,94550.00
2023-05-15T11:02:37.706Z,94550.00
2023-05-15T11:03:48.787Z,94550.00
2023-05-15T11:04:38.641Z,94550.00
2023-05-15T11:05:37.621Z,94550.00
2023-05-15T11:06:37.581Z,94554.00
2023-05-15T11:07:37.572Z,94552.00
2023-05-15T11:08:37.953Z,94554.00
2023-05-15T11:09:37.597Z,94554.00
2023-05-15T11:10:37.566Z,94556.00
2023-05-15T11:11:37.587Z,94554.00
2023-05-15T11:12:37.533Z,94557.00
2023-05-15T11:13:37.985Z,94556.00
2023-05-15T11:14:37.528Z,94556.00
2023-05-15T11:15:37.554Z,94557.00
2023-05-15T11:16:37.623Z,94556.00
2023-05-15T11:17:37.612Z,94561.00
2023-05-15T11:18:38.000Z,94559.00
2023-05-15T11:19:37.648Z,94563.00
2023-05-15T11:20:37.661Z,94565.00
2023-05-15T11:21:37.650Z,94563.00
2023-05-15T11:22:37.660Z,94561.00
2023-05-15T11:23:37.982Z,94563.00
2023-05-15T11:24:37.671Z,94561.00
2023-05-15T11:25:37.678Z,94563.00
2023-05-15T11:26:37.669Z,94561.00
2023-05-15T11:27:37.685Z,94561.00
2023-05-15T11:28:38.005Z,94563.00
2023-05-15T11:29:37.690Z,94561.00
2023-05-15T11:30:37.772Z,94563.00
2023-05-15T11:31:37.848Z,94561.00
2023-05-15T11:32:37.705Z,94561.00
2023-05-15T11:33:37.712Z,94561.00
2023-05-15T11:34:37.691Z,94567.00
2023-05-15T11:35:37.694Z,94563.00
2023-05-15T11:36:37.807Z,94559.00
2023-05-15T11:37:38.088Z,94565.00
2023-05-15T11:38:37.994Z,94569.00
2023-05-15T11:39:37.725Z,94569.00
2023-05-15T11:40:37.745Z,94571.00
2023-05-15T11:41:37.741Z,94573.00
2023-05-15T11:42:37.755Z,94567.00
2023-05-15T11:43:37.765Z,94571.00
2023-05-15T11:44:37.778Z,94575.00